Time;durP1;ratioP1;P1;durP2;ratioP2;P2;SDS_P1;SDS_P2;PMS_P1;PMS_P2;Temp;Humidity;BMP_temperature;BMP_pressure;BME280_temperature;BME280_humidity;BME280_pressure;Samples;Min_cycle;Max_cycle;Signal;HPM_P1;HPM_P2
2021/08/02 00:02:37;;;;;;;0.57;0.57;;;21.50;99.90;;;;;;20738539;23;20237;-71
2021/08/02 00:12:47;;;;;;;0.63;0.47;;;21.60;99.90;;;;;;20774050;28;20222;-70
2021/08/02 00:22:51;;;;;;;0.20;0.07;;;21.50;99.90;;;;;;20776855;28;20214;-70
2021/08/02 00:32:56;;;;;;;2.00;0.70;;;21.40;99.90;;;;;;20756743;28;20233;-71
2021/08/02 00:43:09;;;;;;;0.40;0.20;;;21.50;99.90;;;;;;20792203;28;20551;-70
2021/08/02 00:53:16;;;;;;;0.20;0.20;;;21.40;99.90;;;;;;20790114;28;20232;-71
2021/08/02 01:03:20;;;;;;;0.70;0.30;;;21.40;99.90;;;;;;20790207;28;20241;-71
2021/08/02 01:13:28;;;;;;;0.43;0.37;;;21.50;99.90;;;;;;20785918;28;20218;-71
2021/08/02 01:23:35;;;;;;;0.73;0.73;;;21.50;99.90;;;;;;20787760;28;20723;-71
2021/08/02 01:33:39;;;;;;;1.40;0.57;;;21.40;99.90;;;;;;20785744;28;20233;-71
2021/08/02 01:43:45;;;;;;;0.80;0.77;;;21.10;99.90;;;;;;20786651;28;20504;-69
2021/08/02 01:53:56;;;;;;;2.23;0.30;;;21.30;99.90;;;;;;20784633;28;20591;-70
2021/08/02 02:04:03;;;;;;;0.30;0.20;;;21.30;99.90;;;;;;20785646;28;20264;-69
2021/08/02 02:14:09;;;;;;;0.20;0.10;;;21.30;99.90;;;;;;20784236;28;20222;-72
2021/08/02 02:24:16;;;;;;;0.47;0.47;;;21.30;99.90;;;;;;20782085;28;20190;-69
2021/08/02 02:34:20;;;;;;;0.20;0.10;;;21.40;99.90;;;;;;20783611;28;20564;-69
2021/08/02 02:44:26;;;;;;;1.90;0.37;;;21.30;99.90;;;;;;20761632;28;20198;-69
2021/08/02 02:54:30;;;;;;;0.40;0.40;;;21.20;99.90;;;;;;20781220;28;20558;-71
2021/08/02 03:04:39;;;;;;;0.47;0.33;;;20.80;99.90;;;;;;20779579;28;20232;-71
2021/08/02 03:14:43;;;;;;;0.40;0.40;;;20.60;99.90;;;;;;20781550;28;20218;-69
2021/08/02 03:24:50;;;;;;;0.33;0.23;;;20.40;99.90;;;;;;20780197;28;20210;-70
2021/08/02 03:35:00;;;;;;;0.23;0.20;;;20.50;99.90;;;;;;20780684;28;20225;-73
2021/08/02 03:45:06;;;;;;;0.27;0.13;;;20.70;99.90;;;;;;20781165;28;20224;-71
2021/08/02 03:55:12;;;;;;;0.60;0.50;;;20.80;99.90;;;;;;20778356;28;20237;-70
2021/08/02 04:05:18;;;;;;;0.20;0.10;;;20.90;99.90;;;;;;20778555;28;20233;-70
2021/08/02 04:15:22;;;;;;;0.23;0.23;;;20.80;99.90;;;;;;20777138;28;20230;-69
2021/08/02 04:25:27;;;;;;;0.67;0.63;;;20.40;99.90;;;;;;20778403;28;20197;-69
2021/08/02 04:35:31;;;;;;;11.40;0.53;;;20.30;99.90;;;;;;20778326;28;20994;-69
2021/08/02 04:45:36;;;;;;;0.50;0.50;;;20.30;99.90;;;;;;20775223;28;20630;-70
2021/08/02 04:55:40;;;;;;;1.23;0.93;;;20.00;99.90;;;;;;20775736;28;20222;-72
2021/08/02 05:05:45;;;;;;;1.13;0.40;;;19.90;99.90;;;;;;20774237;28;20230;-72
2021/08/02 05:15:49;;;;;;;0.23;0.13;;;20.00;99.90;;;;;;20776821;28;20222;-70
2021/08/02 05:25:54;;;;;;;1.07;0.77;;;20.30;99.90;;;;;;20763842;28;20205;-72
2021/08/02 05:35:58;;;;;;;0.20;0.10;;;20.50;99.90;;;;;;20789731;28;21029;-67
2021/08/02 05:46:04;;;;;;;0.30;0.30;;;20.50;99.90;;;;;;20787647;28;20340;-71
2021/08/02 05:56:09;;;;;;;0.20;0.20;;;20.70;99.90;;;;;;20851219;28;20225;-70
2021/08/02 06:06:16;;;;;;;1.13;0.77;;;20.70;99.90;;;;;;20842819;28;20245;-70
2021/08/02 06:16:22;;;;;;;0.30;0.23;;;21.00;99.90;;;;;;20784825;28;20581;-70
2021/08/02 06:26:40;;;;;;;0.40;0.17;;;21.40;99.90;;;;;;20783851;28;20221;-72
2021/08/02 06:36:44;;;;;;;0.30;0.30;;;22.00;99.90;;;;;;20783478;28;20554;-68
2021/08/02 06:46:50;;;;;;;0.40;0.20;;;22.40;99.90;;;;;;20760922;28;20205;-70
2021/08/02 06:56:53;;;;;;;6.23;0.77;;;22.70;99.90;;;;;;20779325;28;20740;-69
2021/08/02 07:06:58;;;;;;;0.40;0.40;;;22.80;99.90;;;;;;20757147;28;20232;-70
2021/08/02 07:17:02;;;;;;;0.30;0.30;;;23.10;99.90;;;;;;20773099;28;20222;-71
2021/08/02 07:27:07;;;;;;;0.20;0.10;;;23.70;99.90;;;;;;20774128;28;20209;-69
2021/08/02 07:37:11;;;;;;;0.63;0.20;;;23.40;99.90;;;;;;20777081;28;20501;-69
2021/08/02 07:47:15;;;;;;;0.30;0.20;;;23.70;99.90;;;;;;20771018;28;20221;-68
2021/08/02 07:57:19;;;;;;;0.50;0.47;;;23.70;99.90;;;;;;20775341;28;20316;-67
2021/08/02 08:07:24;;;;;;;0.73;0.40;;;23.90;99.90;;;;;;20772333;28;20225;-69
2021/08/02 08:17:27;;;;;;;0.40;0.40;;;24.10;99.90;;;;;;20755903;28;20278;-68
2021/08/02 08:27:33;;;;;;;0.28;0.10;;;24.40;99.90;;;;;;20799484;28;20277;-69
2021/08/02 08:37:36;;;;;;;0.47;0.30;;;24.40;99.90;;;;;;20743877;28;20358;-70
2021/08/02 08:47:43;;;;;;;1.03;0.50;;;24.30;99.90;;;;;;20734861;28;20301;-70
2021/08/02 08:57:47;;;;;;;1.52;0.43;;;24.30;99.90;;;;;;20693815;28;20650;-70
2021/08/02 09:07:54;;;;;;;16.77;1.10;;;24.60;99.90;;;;;;20746335;28;20233;-67
2021/08/02 09:17:58;;;;;;;0.25;0.15;;;24.70;99.90;;;;;;20784458;28;20229;-67
2021/08/02 09:28:12;;;;;;;0.35;0.35;;;25.00;99.90;;;;;;20786340;28;20190;-67
2021/08/02 09:38:17;;;;;;;0.75;0.60;;;25.00;99.90;;;;;;20785421;28;20226;-69
2021/08/02 09:48:33;;;;;;;0.55;0.47;;;24.90;99.90;;;;;;20784889;28;20545;-70
2021/08/02 09:58:39;;;;;;;0.85;0.65;;;25.40;99.90;;;;;;20783354;28;20256;-70
2021/08/02 10:08:45;;;;;;;4.90;0.32;;;25.80;99.90;;;;;;20780112;28;20230;-70
2021/08/02 10:18:50;;;;;;;0.30;0.30;;;25.40;99.90;;;;;;20779314;28;20692;-69
2021/08/02 10:28:56;;;;;;;0.20;0.10;;;25.60;99.90;;;;;;20779856;28;20597;-71
2021/08/02 10:39:00;;;;;;;0.20;0.00;;;26.30;99.90;;;;;;20778714;28;20258;-69
2021/08/02 10:49:11;;;;;;;0.20;0.10;;;26.40;99.90;;;;;;20763374;28;20285;-69
2021/08/02 10:59:16;;;;;;;4.30;1.67;;;26.70;99.90;;;;;;20775651;28;20707;-69
2021/08/02 11:09:30;;;;;;;1.33;0.45;;;27.00;99.90;;;;;;20703708;28;20682;-69
2021/08/02 11:19:33;;;;;;;0.65;0.65;;;27.50;99.90;;;;;;20707051;28;20237;-68
2021/08/02 11:29:38;;;;;;;0.75;0.75;;;27.30;99.90;;;;;;20692859;28;20241;-69
2021/08/02 11:39:47;;;;;;;0.20;0.10;;;28.20;99.90;;;;;;20694045;28;20223;-68
2021/08/02 11:49:55;;;;;;;0.40;0.35;;;27.40;99.90;;;;;;20694589;28;20514;-69
2021/08/02 12:00:02;;;;;;;0.32;0.30;;;27.20;99.90;;;;;;20679105;28;20240;-69
2021/08/02 12:10:18;;;;;;;4.13;0.70;;;27.10;99.90;;;;;;20774307;28;20999;-69
2021/08/02 12:20:38;;;;;;;0.63;0.50;;;29.00;99.90;;;;;;20770241;28;20320;-70
2021/08/02 12:30:44;;;;;;;0.68;0.68;;;29.40;99.90;;;;;;20775494;28;20198;-70
2021/08/02 12:40:47;;;;;;;1.45;1.08;;;30.10;99.90;;;;;;20787077;28;20241;-69
2021/08/02 12:50:53;;;;;;;0.95;0.85;;;30.70;99.90;;;;;;20788006;28;20206;-70
2021/08/02 13:00:56;;;;;;;0.20;0.20;;;31.40;99.90;;;;;;20768206;28;20248;-71
2021/08/02 13:11:03;;;;;;;0.52;0.50;;;32.60;99.90;;;;;;20787452;28;20675;-69
2021/08/02 13:21:06;;;;;;;0.45;0.43;;;32.10;99.90;;;;;;20767513;28;20214;-70
2021/08/02 13:31:13;;;;;;;4.95;1.70;;;32.10;99.90;;;;;;20783993;28;20209;-70
2021/08/02 13:41:16;;;;;;;1.20;0.60;;;33.20;99.90;;;;;;20783213;28;20325;-69
2021/08/02 13:51:21;;;;;;;0.57;0.40;;;32.90;99.90;;;;;;20784334;28;20226;-69
2021/08/02 14:01:25;;;;;;;1.95;0.43;;;30.90;99.90;;;;;;20783233;28;20798;-69
2021/08/02 14:11:30;;;;;;;0.57;0.57;;;29.90;99.90;;;;;;20780885;28;20271;-68
2021/08/02 14:21:36;;;;;;;0.90;0.57;;;33.10;99.90;;;;;;20775602;28;20264;-68
2021/08/02 14:31:41;;;;;;;0.75;0.75;;;32.40;99.90;;;;;;20776758;28;20205;-70
2021/08/02 14:41:46;;;;;;;0.80;0.35;;;32.90;99.90;;;;;;20779009;28;20585;-67
2021/08/02 14:51:53;;;;;;;3.00;0.95;;;33.80;99.90;;;;;;20778713;28;20565;-67
2021/08/02 15:01:58;;;;;;;0.95;0.60;;;33.30;99.90;;;;;;20776891;28;20238;-70
2021/08/02 15:12:04;;;;;;;0.20;0.20;;;31.90;99.90;;;;;;20775604;28;20710;-69
2021/08/02 15:22:11;;;;;;;1.00;0.40;;;33.20;99.90;;;;;;20773880;28;20213;-68
2021/08/02 15:32:19;;;;;;;3.20;0.65;;;30.50;99.90;;;;;;20756501;28;20194;-68
2021/08/02 15:42:25;;;;;;;5.68;2.15;;;28.40;99.90;;;;;;20773523;28;20225;-69
2021/08/02 15:52:34;;;;;;;2.22;0.77;;;28.50;99.90;;;;;;20755433;28;20210;-69
2021/08/02 16:02:57;;;;;;;1.63;1.15;;;28.70;99.90;;;;;;20755054;28;20568;-69
2021/08/02 16:13:03;;;;;;;0.75;0.40;;;29.70;99.90;;;;;;20772340;28;20690;-69
2021/08/02 16:23:07;;;;;;;0.65;0.65;;;29.00;99.90;;;;;;20769848;28;20225;-70
2021/08/02 16:33:14;;;;;;;1.15;0.60;;;28.80;99.90;;;;;;20773147;28;20324;-68
2021/08/02 16:43:18;;;;;;;0.35;0.35;;;28.60;99.90;;;;;;20769798;28;20222;-68
2021/08/02 16:53:24;;;;;;;1.00;0.50;;;28.40;99.90;;;;;;20773733;28;20194;-70
2021/08/02 17:03:27;;;;;;;2.55;1.95;;;28.30;99.90;;;;;;20752585;28;20256;-70
2021/08/02 17:13:33;;;;;;;0.22;0.22;;;29.00;99.90;;;;;;20753145;28;20649;-69
2021/08/02 17:23:36;;;;;;;0.60;0.35;;;28.50;99.90;;;;;;20763491;28;20205;-70
2021/08/02 17:33:42;;;;;;;1.52;0.63;;;29.90;99.90;;;;;;20783746;28;20194;-70
2021/08/02 17:43:50;;;;;;;0.73;0.57;;;29.80;99.90;;;;;;20785170;28;20818;-70
2021/08/02 17:53:56;;;;;;;0.77;0.50;;;30.40;99.90;;;;;;20765831;28;20691;-71
2021/08/02 18:04:03;;;;;;;3.90;0.80;;;28.40;99.90;;;;;;20777839;28;20226;-71
2021/08/02 18:14:08;;;;;;;0.93;0.63;;;27.20;99.90;;;;;;20700191;28;20698;-72
2021/08/02 18:24:12;;;;;;;0.60;0.60;;;26.60;99.90;;;;;;20700889;28;20344;-70
2021/08/02 18:34:17;;;;;;;1.33;1.20;;;26.50;99.90;;;;;;20683455;28;20308;-71
2021/08/02 18:44:20;;;;;;;1.00;0.63;;;26.50;99.90;;;;;;20700016;28;20199;-71
2021/08/02 18:54:26;;;;;;;3.92;0.60;;;26.10;99.90;;;;;;20680960;28;20215;-71
2021/08/02 19:04:29;;;;;;;1.95;0.70;;;26.00;99.90;;;;;;20736490;28;20218;-71
2021/08/02 19:14:36;;;;;;;2.78;0.93;;;25.70;99.90;;;;;;20762717;28;20692;-71
2021/08/02 19:24:42;;;;;;;1.45;0.47;;;25.20;99.90;;;;;;20752089;28;20867;-70
2021/08/02 19:34:48;;;;;;;1.00;0.32;;;25.20;99.90;;;;;;20695436;28;20219;-70
2021/08/02 19:44:58;;;;;;;0.38;0.35;;;25.00;99.90;;;;;;20693772;28;20654;-72
2021/08/02 19:55:04;;;;;;;0.47;0.47;;;24.90;99.90;;;;;;20675670;28;20291;-71
2021/08/02 20:05:11;;;;;;;0.90;0.47;;;24.80;99.90;;;;;;20709723;28;21019;-71
2021/08/02 20:15:16;;;;;;;1.13;0.95;;;24.70;99.90;;;;;;20754064;28;20884;-70
2021/08/02 20:25:25;;;;;;;2.05;1.10;;;24.50;99.90;;;;;;20757236;28;20217;-71
2021/08/02 20:35:31;;;;;;;0.30;0.20;;;24.30;99.90;;;;;;20773796;28;20229;-72
2021/08/02 20:45:35;;;;;;;0.93;0.93;;;24.10;99.90;;;;;;20773537;28;20194;-73
2021/08/02 20:55:44;;;;;;;0.93;0.30;;;24.20;99.90;;;;;;20816704;28;20253;-74
2021/08/02 21:05:54;;;;;;;0.30;0.28;;;24.30;99.90;;;;;;20789176;28;20230;-75
2021/08/02 21:16:04;;;;;;;0.20;0.13;;;24.40;99.90;;;;;;20771885;28;20715;-75
2021/08/02 21:26:10;;;;;;;0.30;0.20;;;24.40;99.90;;;;;;20771819;28;20193;-74
2021/08/02 21:36:15;;;;;;;0.30;0.30;;;24.60;99.90;;;;;;20767311;28;20241;-73
2021/08/02 21:46:19;;;;;;;0.32;0.20;;;24.40;99.90;;;;;;20768150;28;20564;-73
2021/08/02 21:56:24;;;;;;;0.35;0.20;;;24.60;99.90;;;;;;20767211;28;20445;-73
2021/08/02 22:06:28;;;;;;;3.65;1.02;;;24.60;99.90;;;;;;20782879;28;20572;-73
2021/08/02 22:16:33;;;;;;;0.43;0.32;;;24.80;99.90;;;;;;20782396;28;20573;-72
2021/08/02 22:26:37;;;;;;;0.30;0.30;;;24.80;99.90;;;;;;20782346;28;20205;-72
2021/08/02 22:36:43;;;;;;;8.30;0.47;;;24.80;99.90;;;;;;20782191;28;20222;-73
2021/08/02 22:46:46;;;;;;;1.10;0.20;;;24.70;99.90;;;;;;20782555;28;20199;-73
2021/08/02 22:56:55;;;;;;;0.70;0.40;;;24.70;99.90;;;;;;20780766;28;20659;-73
2021/08/02 23:07:00;;;;;;;0.25;0.08;;;24.40;99.90;;;;;;20778790;28;20248;-72
2021/08/02 23:17:07;;;;;;;1.10;0.63;;;24.40;99.90;;;;;;20783185;28;20690;-72
2021/08/02 23:27:14;;;;;;;4.68;0.50;;;24.40;99.90;;;;;;20780699;28;20190;-74
2021/08/02 23:37:20;;;;;;;0.30;0.30;;;24.30;99.90;;;;;;20779187;28;20235;-71
2021/08/02 23:47:24;;;;;;;0.30;0.30;;;24.00;99.90;;;;;;20783235;28;20716;-71
2021/08/02 23:57:31;;;;;;;0.73;0.73;;;23.60;99.90;;;;;;20779453;28;20233;-72
